Time;durP1;ratioP1;P1;durP2;ratioP2;P2;SDS_P1;SDS_P2;PMS_P1;PMS_P2;Temp;Humidity;BMP_temperature;BMP_pressure;BME280_temperature;BME280_humidity;BME280_pressure;Samples;Min_cycle;Max_cycle;Signal;HPM_P1;HPM_P2
2019/04/02 00:01:05;;;;;;;36.5;25.2;;;;;;;6.76;88.54199;956.7015;;;;
2019/04/02 00:03:33;;;;;;;32.7;23.8;;;;;;;6.57;89.41113;956.605;;;;
2019/04/02 00:06:02;;;;;;;30.7;24.1;;;;;;;6.48;90.44043;956.6383;;;;
2019/04/02 00:08:27;;;;;;;30.5;24.8;;;;;;;6.43;90.42871;956.639;;;;
2019/04/02 00:10:52;;;;;;;32.4;24.7;;;;;;;6.23;92.30176;956.6113;;;;
2019/04/02 00:13:17;;;;;;;35.9;26;;;;;;;6.18;92.92383;956.5692;;;;
2019/04/02 00:15:43;;;;;;;36.5;26.6;;;;;;;6.11;93.70215;956.5542;;;;
2019/04/02 00:18:07;;;;;;;34.3;27.1;;;;;;;6.13;93.6123;956.5273;;;;
2019/04/02 00:20:33;;;;;;;32.9;25.3;;;;;;;6.17;93.09375;956.5027;;;;
2019/04/02 00:23:03;;;;;;;35.8;24.8;;;;;;;5.9;94.99805;956.4553;;;;
2019/04/02 00:25:28;;;;;;;26.9;21.1;;;;;;;5.76;96.06738;956.514;;;;
2019/04/02 00:28:22;;;;;;;30;23.2;;;;;;;5.68;97.10645;956.3984;;;;
2019/04/02 00:30:34;;;;;;;40;27.9;;;;;;;5.95;95.74414;956.4973;;;;
2019/04/02 00:32:59;;;;;;;36.8;27.3;;;;;;;5.88;96.4834;956.3894;;;;
2019/04/02 00:35:29;;;;;;;29.3;22.6;;;;;;;5.71;97.22559;956.3923;;;;
2019/04/02 00:37:54;;;;;;;33.2;25;;;;;;;5.66;97.68555;956.4344;;;;
2019/04/02 00:40:21;;;;;;;31.3;23.9;;;;;;;5.51;98.14551;956.3925;;;;
2019/04/02 00:42:46;;;;;;;34.7;25;;;;;;;5.45;99.6084;956.4872;;;;
2019/04/02 00:45:11;;;;;;;35.1;28.5;;;;;;;5.64;97.69043;956.4785;;;;
2019/04/02 00:47:36;;;;;;;33.3;24.5;;;;;;;5.58;97.62109;956.4497;;;;
2019/04/02 00:50:02;;;;;;;31;23.7;;;;;;;5.55;98.0166;956.389;;;;
2019/04/02 00:52:32;;;;;;;33.1;24.6;;;;;;;5.63;97.18652;956.3569;;;;
2019/04/02 00:54:57;;;;;;;36.4;27.2;;;;;;;5.66;96.87109;956.3155;;;;
2019/04/02 00:57:22;;;;;;;36.7;25.5;;;;;;;5.53;96.97852;956.2983;;;;
2019/04/02 01:00:01;;;;;;;32.7;23.7;;;;;;;5.46;98.09766;956.313;;;;
2019/04/02 01:02:23;;;;;;;27.8;20.1;;;;;;;5.27;99.49805;956.3428;;;;
2019/04/02 01:04:48;;;;;;;33.3;24.5;;;;;;;5.41;98.43066;956.2501;;;;
2019/04/02 01:07:13;;;;;;;33.5;25.8;;;;;;;5.37;98.5127;956.3166;;;;
2019/04/02 01:09:39;;;;;;;33.6;25.4;;;;;;;5.36;98.45508;956.2501;;;;
2019/04/02 01:12:04;;;;;;;31.5;23;;;;;;;5.31;98.88965;956.2288;;;;
2019/04/02 01:14:33;;;;;;;33.8;26.2;;;;;;;5.45;98.49609;956.238;;;;
2019/04/02 01:16:58;;;;;;;30.1;23.1;;;;;;;5.37;98.90234;956.1899;;;;
2019/04/02 01:19:23;;;;;;;29.5;23.1;;;;;;;5.37;99.02832;956.2366;;;;
2019/04/02 01:21:48;;;;;;;34.5;26.4;;;;;;;5.36;99.28027;956.2034;;;;
2019/04/02 01:24:21;;;;;;;34.4;26.3;;;;;;;5.53;98.37695;956.197;;;;
2019/04/02 01:27:07;;;;;;;31.2;24.2;;;;;;;5.33;99.44336;956.1473;;;;
2019/04/02 01:29:42;;;;;;;32.2;24.4;;;;;;;5.17;100;956.1741;;;;
2019/04/02 01:32:15;;;;;;;31.8;24.5;;;;;;;5.29;100;956.2308;;;;
2019/04/02 01:34:33;;;;;;;30.9;24.1;;;;;;;5.17;100;956.1615;;;;
2019/04/02 01:37:02;;;;;;;36.9;27.1;;;;;;;5.25;100;956.2133;;;;
2019/04/02 01:39:27;;;;;;;38.3;28.3;;;;;;;5.24;100;956.1428;;;;
2019/04/02 01:41:52;;;;;;;35.9;27.4;;;;;;;5.14;100;956.1215;;;;
2019/04/02 01:44:17;;;;;;;38.2;27.9;;;;;;;5.09;100;956.1641;;;;
2019/04/02 01:46:42;;;;;;;38.3;29.1;;;;;;;5.06;100;956.1589;;;;
2019/04/02 01:49:07;;;;;;;40.1;29;;;;;;;5.04;100;956.0889;;;;
2019/04/02 01:51:32;;;;;;;39.6;28.8;;;;;;;4.92;100;956.0569;;;;
2019/04/02 01:54:00;;;;;;;35.9;27.3;;;;;;;4.89;100;956.0048;;;;
2019/04/02 01:56:25;;;;;;;39.3;29.2;;;;;;;4.77;100;955.9728;;;;
2019/04/02 01:58:50;;;;;;;42.5;32.1;;;;;;;4.83;100;955.9084;;;;
2019/04/02 02:01:23;;;;;;;40.7;30.1;;;;;;;4.77;100;955.9348;;;;
2019/04/02 02:03:49;;;;;;;40.1;30;;;;;;;4.6;100;955.8948;;;;
2019/04/02 02:06:16;;;;;;;35.3;26.2;;;;;;;4.43;100;955.973;;;;
2019/04/02 02:08:42;;;;;;;38.4;28.9;;;;;;;4.41;100;955.899;;;;
2019/04/02 02:11:09;;;;;;;43.7;31.7;;;;;;;4.36;100;955.903;;;;
2019/04/02 02:13:34;;;;;;;42.7;32.7;;;;;;;4.49;100;955.8073;;;;
2019/04/02 02:16:04;;;;;;;45.2;32.9;;;;;;;4.54;100;955.866;;;;
2019/04/02 02:18:26;;;;;;;41.7;32.6;;;;;;;4.48;100;955.8845;;;;
2019/04/02 02:20:51;;;;;;;44.5;33;;;;;;;4.41;100;955.899;;;;
2019/04/02 02:23:17;;;;;;;41.5;30.5;;;;;;;4.34;100;955.8669;;;;
2019/04/02 02:25:45;;;;;;;42.2;32.5;;;;;;;4.28;100;955.8555;;;;
2019/04/02 02:28:11;;;;;;;44.6;32.8;;;;;;;4.27;100;955.8981;;;;
2019/04/02 02:30:36;;;;;;;47.6;34.6;;;;;;;4.42;100;955.8723;;;;
2019/04/02 02:33:01;;;;;;;44.8;33.5;;;;;;;4.42;100;955.8014;;;;
2019/04/02 02:35:26;;;;;;;39.8;28.8;;;;;;;4.1;100;955.8111;;;;
2019/04/02 02:37:51;;;;;;;37.8;26.8;;;;;;;3.84;100;955.8881;;;;
2019/04/02 02:40:16;;;;;;;43.7;31.8;;;;;;;3.87;100;955.9192;;;;
2019/04/02 02:42:45;;;;;;;40;29.9;;;;;;;3.86;100;955.9034;;;;
2019/04/02 02:45:10;;;;;;;42.8;32.4;;;;;;;3.97;100;955.8186;;;;
2019/04/02 02:47:35;;;;;;;46.3;32.4;;;;;;;4.05;100;955.7698;;;;
2019/04/02 02:50:03;;;;;;;50.3;35;;;;;;;4.19;100;955.7275;;;;
2019/04/02 02:52:28;;;;;;;44.7;32.9;;;;;;;4.39;100;955.6521;;;;
2019/04/02 02:54:53;;;;;;;44;32.5;;;;;;;4.44;100;955.6476;;;;
2019/04/02 02:57:19;;;;;;;47.8;35.1;;;;;;;4.5;100;955.6716;;;;
2019/04/02 02:59:44;;;;;;;41.3;30.8;;;;;;;4.35;100;955.6515;;;;
2019/04/02 03:02:12;;;;;;;45.1;32.6;;;;;;;4.34;100;955.5842;;;;
2019/04/02 03:04:37;;;;;;;43.1;30.8;;;;;;;4.29;100;955.5594;;;;
2019/04/02 03:07:02;;;;;;;40.2;29.8;;;;;;;4.18;100;955.5812;;;;
2019/04/02 03:09:33;;;;;;;42.8;32.2;;;;;;;4.16;100;955.5912;;;;
2019/04/02 03:11:58;;;;;;;38.5;27.4;;;;;;;4.03;100;955.5939;;;;
2019/04/02 03:14:25;;;;;;;42.9;30.6;;;;;;;3.97;100;955.5279;;;;
2019/04/02 03:16:51;;;;;;;38.6;27.9;;;;;;;3.87;100;955.5997;;;;
2019/04/02 03:19:16;;;;;;;41.2;30.6;;;;;;;3.74;100;955.6269;;;;
2019/04/02 03:21:41;;;;;;;42.1;30.9;;;;;;;3.79;100;955.6186;;;;
2019/04/02 03:24:06;;;;;;;33.7;24.5;;;;;;;3.56;100;955.6168;;;;
2019/04/02 03:26:31;;;;;;;36.5;25.9;;;;;;;3.4;100;955.634;;;;
2019/04/02 03:28:59;;;;;;;32.7;24.7;;;;;;;3.23;100;955.5895;;;;
2019/04/02 03:31:24;;;;;;;51.6;30.8;;;;;;;3.22;100;955.5605;;;;
2019/04/02 03:33:53;;;;;;;45.4;31.5;;;;;;;3.37;100;955.54;;;;
2019/04/02 03:36:18;;;;;;;38;28;;;;;;;3.39;100;955.5972;;;;
2019/04/02 03:38:43;;;;;;;40.3;26.3;;;;;;;3.4;100;955.63;;;;
2019/04/02 03:41:13;;;;;;;37.6;26.1;;;;;;;3.22;100;955.6071;;;;
2019/04/02 03:43:37;;;;;;;49.7;32.7;;;;;;;3.18;100;955.5594;;;;
2019/04/02 03:46:07;;;;;;;43.7;30.1;;;;;;;3.01;100;955.5817;;;;
2019/04/02 03:48:31;;;;;;;46.5;30.8;;;;;;;2.79;100;955.5114;;;;
2019/04/02 03:50:56;;;;;;;45.6;31.5;;;;;;;2.68;100;955.5286;;;;
2019/04/02 03:53:23;;;;;;;47.3;30.3;;;;;;;2.65;100;955.5264;;;;
2019/04/02 03:55:48;;;;;;;39.5;27.6;;;;;;;2.55;100;955.4633;;;;
2019/04/02 03:58:13;;;;;;;48.3;30.6;;;;;;;2.52;100;955.4575;;;;
2019/04/02 04:02:28;;;;;;;49.6;33;;;;;;;2.68;100;955.4232;;;;
2019/04/02 04:04:53;;;;;;;60.3;38.1;;;;;;;2.93;100;955.3486;;;;
2019/04/02 04:07:18;;;;;;;44;29.9;;;;;;;2.85;100;955.3042;;;;
2019/04/02 04:09:48;;;;;;;47.8;31;;;;;;;2.79;100;955.2885;;;;
2019/04/02 04:12:13;;;;;;;53;35.3;;;;;;;2.82;100;955.2947;;;;
2019/04/02 04:14:38;;;;;;;43.9;29.4;;;;;;;2.68;100;955.222;;;;
2019/04/02 04:17:03;;;;;;;45.6;30.3;;;;;;;2.71;100;955.1813;;;;
2019/04/02 04:19:28;;;;;;;46.1;30.2;;;;;;;2.76;100;955.2241;;;;
2019/04/02 04:21:53;;;;;;;54.4;34.6;;;;;;;2.95;100;955.2458;;;;
2019/04/02 04:24:19;;;;;;;40.5;29.3;;;;;;;2.84;100;955.1834;;;;
2019/04/02 04:26:47;;;;;;;48.3;33.2;;;;;;;2.99;100;955.2642;;;;
2019/04/02 04:29:12;;;;;;;53.5;34.5;;;;;;;3.07;100;955.2114;;;;
2019/04/02 04:31:38;;;;;;;45.1;32.4;;;;;;;3.07;100;955.228;;;;
2019/04/02 04:34:03;;;;;;;54.5;35.8;;;;;;;3.3;100;955.3058;;;;
2019/04/02 04:36:28;;;;;;;50;32.9;;;;;;;3.35;100;955.2681;;;;
2019/04/02 04:38:53;;;;;;;46.5;32.9;;;;;;;3.43;100;955.3071;;;;
2019/04/02 04:41:19;;;;;;;45.9;31.9;;;;;;;3.47;100;955.2076;;;;
2019/04/02 04:43:48;;;;;;;39.9;27.3;;;;;;;3.36;100;955.2717;;;;
2019/04/02 04:46:15;;;;;;;31.5;23.7;;;;;;;3.18;100;955.2353;;;;
2019/04/02 04:48:40;;;;;;;39.5;25.2;;;;;;;3.07;100;955.1983;;;;
2019/04/02 04:51:05;;;;;;;47.7;30.9;;;;;;;3.16;100;955.2292;;;;
2019/04/02 04:53:30;;;;;;;46.4;30.5;;;;;;;3.36;100;955.3222;;;;
2019/04/02 04:55:56;;;;;;;38.4;29.2;;;;;;;3.37;100;955.2203;;;;
2019/04/02 04:58:24;;;;;;;35.5;24.9;;;;;;;3.29;100;955.2936;;;;
2019/04/02 05:00:49;;;;;;;41.2;26.7;;;;;;;3.22;100;955.3041;;;;
2019/04/02 05:03:14;;;;;;;46.4;31.2;;;;;;;3.41;100;955.2756;;;;
2019/04/02 05:05:41;;;;;;;38.1;25.5;;;;;;;3.54;100;955.2606;;;;
2019/04/02 05:08:06;;;;;;;32.5;23;;;;;;;3.64;100;955.2101;;;;
2019/04/02 05:10:39;;;;;;;32.5;22.7;;;;;;;3.67;100;955.2583;;;;
2019/04/02 05:13:03;;;;;;;35.3;22.3;;;;;;;3.64;100;955.2521;;;;
2019/04/02 05:15:28;;;;;;;34.9;22.5;;;;;;;3.74;100;955.2606;;;;
2019/04/02 05:17:54;;;;;;;30.4;21.1;;;;;;;3.9;100;955.2598;;;;
2019/04/02 05:20:24;;;;;;;31.8;20.2;;;;;;;4.02;100;955.2541;;;;
2019/04/02 05:22:58;;;;;;;29;21.7;;;;;;;4.13;100;955.3036;;;;
2019/04/02 05:25:26;;;;;;;34.1;22.8;;;;;;;4.35;100;955.2216;;;;
2019/04/02 05:27:53;;;;;;;31.9;22.2;;;;;;;4.96;100;955.2814;;;;
2019/04/02 05:30:18;;;;;;;27.6;18.9;;;;;;;5.74;95.50098;955.1981;;;;
2019/04/02 05:32:50;;;;;;;25.5;18.7;;;;;;;6.39;90.16699;955.2004;;;;
2019/04/02 05:35:16;;;;;;;31.6;19.9;;;;;;;6.86;84.76855;955.1516;;;;
2019/04/02 05:37:41;;;;;;;30.8;19.4;;;;;;;7.41;81.24023;955.1687;;;;
2019/04/02 05:40:10;;;;;;;27.7;20;;;;;;;7.57;78.10156;955.1578;;;;
2019/04/02 05:42:38;;;;;;;27.3;18.6;;;;;;;8.1;76.00684;955.2144;;;;
2019/04/02 05:45:03;;;;;;;23.5;16.3;;;;;;;8.67;74.17676;955.2158;;;;
2019/04/02 05:47:30;;;;;;;29.1;21.6;;;;;;;8.31;73.3877;955.1428;;;;
2019/04/02 05:49:55;;;;;;;32.4;22.7;;;;;;;8.11;74.00195;955.1625;;;;
2019/04/02 05:52:20;;;;;;;28.1;19.4;;;;;;;8.2;75.02051;955.1191;;;;
2019/04/02 05:54:45;;;;;;;28.5;20;;;;;;;8.68;71.53516;955.125;;;;
2019/04/02 05:57:15;;;;;;;25.1;18.6;;;;;;;9.07;70.22461;955.1689;;;;
2019/04/02 05:59:40;;;;;;;25.3;17.3;;;;;;;9.45;69.67285;955.0905;;;;
2019/04/02 06:02:06;;;;;;;30.4;19.8;;;;;;;9.82;66.57129;955.0417;;;;
2019/04/02 06:04:30;;;;;;;30.5;20.5;;;;;;;10.28;64.12695;954.9914;;;;
2019/04/02 06:06:55;;;;;;;33.4;22.1;;;;;;;10.14;64.07129;955.0414;;;;
2019/04/02 06:09:21;;;;;;;31.7;22.2;;;;;;;10.44;63.67578;954.9777;;;;
2019/04/02 06:11:45;;;;;;;28.9;20.4;;;;;;;10.89;62.94043;954.9529;;;;
2019/04/02 06:14:17;;;;;;;36.5;25.7;;;;;;;10.38;64.31543;954.9204;;;;
2019/04/02 06:16:42;;;;;;;26.2;19.4;;;;;;;11.19;62.78809;954.9608;;;;
2019/04/02 06:19:07;;;;;;;29.3;21.1;;;;;;;10.83;63.45313;954.9303;;;;
2019/04/02 06:21:33;;;;;;;32.3;23.7;;;;;;;10.68;64.39551;954.8915;;;;
2019/04/02 06:23:59;;;;;;;27.3;21.2;;;;;;;10.94;63.80664;954.8831;;;;
2019/04/02 06:26:27;;;;;;;35.5;27.1;;;;;;;10.41;66.97656;954.8788;;;;
2019/04/02 06:28:49;;;;;;;35.3;25.4;;;;;;;11.27;63.7627;954.8539;;;;
2019/04/02 06:31:14;;;;;;;31.7;22.9;;;;;;;11.63;62.03711;954.859;;;;
2019/04/02 06:33:39;;;;;;;43.8;30.6;;;;;;;10.97;65.73828;954.8158;;;;
2019/04/02 06:36:04;;;;;;;37;28.5;;;;;;;11.36;64.66992;954.9081;;;;
2019/04/02 06:38:30;;;;;;;41;29.8;;;;;;;11.69;63.33594;954.8524;;;;
2019/04/02 06:40:55;;;;;;;45.1;27.6;;;;;;;12.23;62.01758;954.8058;;;;
2019/04/02 06:43:20;;;;;;;83.6;29.5;;;;;;;12.38;62.26074;954.8823;;;;
2019/04/02 06:45:45;;;;;;;36.3;26.8;;;;;;;12.38;62.2832;954.7878;;;;
2019/04/02 06:48:16;;;;;;;40.5;30.7;;;;;;;12.23;62.15723;954.7161;;;;
2019/04/02 06:50:39;;;;;;;40.9;31.5;;;;;;;11;67.26367;954.7916;;;;
2019/04/02 06:53:01;;;;;;;44.7;31.7;;;;;;;11.16;67.30078;954.7814;;;;
2019/04/02 06:55:25;;;;;;;35.2;28.7;;;;;;;11.68;66.11328;954.722;;;;
2019/04/02 06:57:51;;;;;;;36.7;25.9;;;;;;;12.76;61.77734;954.7381;;;;
2019/04/02 07:00:27;;;;;;;36.8;26.8;;;;;;;13.03;60.32324;954.7397;;;;
2019/04/02 07:02:51;;;;;;;37.5;28.6;;;;;;;13.29;59.60059;954.7458;;;;
2019/04/02 07:05:18;;;;;;;30.5;24.7;;;;;;;13.52;58.28906;954.688;;;;
2019/04/02 07:07:42;;;;;;;32.3;23.5;;;;;;;13.98;56.99512;954.6944;;;;
2019/04/02 07:10:08;;;;;;;27;23.3;;;;;;;14.97;54.13574;954.6575;;;;
2019/04/02 07:12:33;;;;;;;32.3;25.7;;;;;;;14.68;54.87305;954.6772;;;;
2019/04/02 07:15:03;;;;;;;33.3;28.2;;;;;;;14.17;56.22363;954.6744;;;;
2019/04/02 07:17:32;;;;;;;32.4;26.3;;;;;;;14.05;57.19141;954.7322;;;;
2019/04/02 07:20:12;;;;;;;33.5;28.4;;;;;;;13.84;58.08789;954.5703;;;;
2019/04/02 07:22:57;;;;;;;32.6;27.9;;;;;;;14.45;56.03711;954.6094;;;;
2019/04/02 07:25:24;;;;;;;29.5;25.3;;;;;;;14.98;54.60547;954.6091;;;;
2019/04/02 07:27:57;;;;;;;38.2;30.1;;;;;;;14.74;54.09668;954.6138;;;;
2019/04/02 07:30:24;;;;;;;37.9;30.9;;;;;;;13.96;57.58887;954.645;;;;
2019/04/02 07:32:46;;;;;;;43;31.8;;;;;;;13.73;58.55273;954.6102;;;;
2019/04/02 07:35:11;;;;;;;40.4;32.7;;;;;;;14.15;57.22754;954.5953;;;;
2019/04/02 07:37:38;;;;;;;35;29.5;;;;;;;14.76;55.80762;954.5643;;;;
2019/04/02 07:40:06;;;;;;;27.1;23.3;;;;;;;16.02;52.49219;954.5829;;;;
2019/04/02 07:42:31;;;;;;;37.4;29.9;;;;;;;16.29;50.45605;954.5718;;;;
2019/04/02 07:44:56;;;;;;;30.3;25.2;;;;;;;16.46;50.99316;954.5609;;;;
2019/04/02 07:47:26;;;;;;;26.5;22.5;;;;;;;17.5;48.12109;954.5375;;;;
2019/04/02 07:49:51;;;;;;;34.9;29.7;;;;;;;17.25;48.10547;954.5041;;;;
2019/04/02 07:52:16;;;;;;;41.8;30;;;;;;;17.92;46.66797;954.5047;;;;
2019/04/02 07:54:41;;;;;;;39.1;29;;;;;;;17.7;46.7041;954.5569;;;;
2019/04/02 07:57:07;;;;;;;30;26.2;;;;;;;17.8;47.42285;954.5725;;;;
2019/04/02 07:59:41;;;;;;;26;22.7;;;;;;;18.31;45.88281;954.4611;;;;
2019/04/02 08:02:03;;;;;;;37.4;31.9;;;;;;;18.03;46.11426;954.548;;;;
2019/04/02 08:04:29;;;;;;;33;28;;;;;;;18.25;45.62891;954.5555;;;;
2019/04/02 08:06:56;;;;;;;38.5;32.5;;;;;;;18;46.26465;954.5781;;;;
2019/04/02 08:09:22;;;;;;;40.4;33.8;;;;;;;17.47;48.11816;954.5109;;;;
2019/04/02 08:11:54;;;;;;;29.3;24.7;;;;;;;18.82;45.14355;954.5988;;;;
2019/04/02 08:14:20;;;;;;;27.8;24.8;;;;;;;19.95;42.12012;954.568;;;;
2019/04/02 08:16:45;;;;;;;38.7;33.5;;;;;;;19.33;42.9834;954.6138;;;;
2019/04/02 08:19:12;;;;;;;29.1;26;;;;;;;20;42.0293;954.5442;;;;
2019/04/02 08:21:39;;;;;;;30.3;26.9;;;;;;;20.42;41.17969;954.5706;;;;
2019/04/02 08:24:04;;;;;;;24.8;22.1;;;;;;;20.35;41.3623;954.5695;;;;
2019/04/02 08:26:29;;;;;;;28.9;25.9;;;;;;;20.22;41.69434;954.528;;;;
2019/04/02 08:28:54;;;;;;;27.6;24.7;;;;;;;20.74;40.59277;954.5261;;;;
2019/04/02 08:31:21;;;;;;;32.5;28.1;;;;;;;20.2;41.39648;954.5002;;;;
2019/04/02 08:33:46;;;;;;;37.6;30.3;;;;;;;20.2;41.13477;954.4702;;;;
2019/04/02 08:36:11;;;;;;;32.3;28.3;;;;;;;19.37;43.62598;954.5007;;;;
2019/04/02 08:38:36;;;;;;;28.4;25.4;;;;;;;19.67;42.76758;954.4595;;;;
2019/04/02 08:41:01;;;;;;;29.5;26.3;;;;;;;19.77;42.56445;954.4708;;;;
2019/04/02 08:43:32;;;;;;;35.3;30.4;;;;;;;19.72;42.47656;954.4526;;;;
2019/04/02 08:46:03;;;;;;;27.5;24.6;;;;;;;20.08;41.72949;954.4666;;;;
2019/04/02 08:48:26;;;;;;;31.9;28.3;;;;;;;20.51;40.54785;954.4309;;;;
2019/04/02 08:50:51;;;;;;;31.3;28;;;;;;;20.55;41.22754;954.4174;;;;
2019/04/02 08:53:21;;;;;;;31.5;26;;;;;;;20.94;40.33691;954.3995;;;;
2019/04/02 08:55:47;;;;;;;23.1;20.7;;;;;;;22.05;38.12793;954.3808;;;;
2019/04/02 08:58:11;;;;;;;30.2;26.7;;;;;;;22.34;37.02051;954.3564;;;;
2019/04/02 09:00:37;;;;;;;28.4;25.5;;;;;;;22.96;35.62891;954.2899;;;;
2019/04/02 09:03:03;;;;;;;27.3;23.7;;;;;;;24.02;33.40527;954.3228;;;;
2019/04/02 09:05:28;;;;;;;29.9;26.6;;;;;;;23.04;34.69238;954.2162;;;;
2019/04/02 09:07:57;;;;;;;22.5;20.2;;;;;;;23.68;34.09668;954.2062;;;;
2019/04/02 09:10:22;;;;;;;29;25.9;;;;;;;24.13;33.31738;954.2531;;;;
2019/04/02 09:12:47;;;;;;;28.6;25.6;;;;;;;24.37;32.48633;954.2642;;;;
2019/04/02 09:15:12;;;;;;;28.2;25.4;;;;;;;23.79;32.98145;954.2446;;;;
2019/04/02 09:17:37;;;;;;;33.8;30.3;;;;;;;23.29;33.95996;954.1959;;;;
2019/04/02 09:20:04;;;;;;;26;23.3;;;;;;;23.91;32.72754;954.1761;;;;
2019/04/02 09:22:29;;;;;;;30.6;27.4;;;;;;;22.24;35.75;954.1733;;;;
2019/04/02 09:24:54;;;;;;;33.7;28.3;;;;;;;22.95;33.96973;954.17;;;;
2019/04/02 09:27:19;;;;;;;20.1;18;;;;;;;24.02;32.79492;954.1359;;;;
2019/04/02 09:29:47;;;;;;;34.2;30.6;;;;;;;23.78;32.47852;954.1678;;;;
2019/04/02 09:32:12;;;;;;;26.9;24.2;;;;;;;23.05;33.75;954.1144;;;;
2019/04/02 09:34:37;;;;;;;26.8;23.9;;;;;;;23.81;32.64844;954.1364;;;;
2019/04/02 09:37:02;;;;;;;28.6;25.7;;;;;;;23.84;32.42383;954.0661;;;;
2019/04/02 09:39:28;;;;;;;29.4;26.3;;;;;;;24.41;31.99805;954.0917;;;;
2019/04/02 09:41:53;;;;;;;26;23.3;;;;;;;25.39;30.62891;954.1227;;;;
2019/04/02 09:44:18;;;;;;;27.9;25.1;;;;;;;24.71;31.46973;954.1133;;;;
2019/04/02 09:46:46;;;;;;;26.2;22.4;;;;;;;25.37;30.61523;954.1097;;;;
2019/04/02 09:49:08;;;;;;;25.8;23.1;;;;;;;24.84;30.63965;954.0747;;;;
2019/04/02 09:51:33;;;;;;;27.6;24.6;;;;;;;23.89;32.47559;953.983;;;;
2019/04/02 09:53:58;;;;;;;32.9;27.5;;;;;;;23.81;32.45703;953.9576;;;;
2019/04/02 09:56:24;;;;;;;27.7;24.8;;;;;;;23.55;32.52246;954.0137;;;;
2019/04/02 09:58:49;;;;;;;27.6;24.6;;;;;;;22.6;34.30078;953.9011;;;;
2019/04/02 10:01:14;;;;;;;25.9;23.1;;;;;;;23.77;32.59766;953.8727;;;;
2019/04/02 10:04:01;;;;;;;23.2;20.8;;;;;;;24.26;31.38965;953.8513;;;;
2019/04/02 10:06:35;;;;;;;27.5;24.6;;;;;;;22.3;34.54004;953.8198;;;;
2019/04/02 10:09:06;;;;;;;25.2;22.5;;;;;;;21.79;35.72559;953.75;;;;
2019/04/02 10:11:45;;;;;;;22.7;19.8;;;;;;;22.4;34.52344;953.7087;;;;
2019/04/02 10:14:08;;;;;;;30.9;27.1;;;;;;;21.56;35.82617;953.6783;;;;
2019/04/02 10:16:54;;;;;;;26.2;23.1;;;;;;;22.65;33.76758;953.6372;;;;
2019/04/02 10:19:17;;;;;;;25.3;20.7;;;;;;;24.42;31.3291;953.6451;;;;
2019/04/02 10:21:42;;;;;;;22.1;19.6;;;;;;;25.26;29.57617;953.5653;;;;
2019/04/02 10:24:17;;;;;;;28.5;25.4;;;;;;;24.4;30.59668;953.5053;;;;
2019/04/02 10:26:45;;;;;;;24.8;22.1;;;;;;;25.07;29.76758;953.4508;;;;
2019/04/02 10:29:09;;;;;;;24.4;21.7;;;;;;;25.73;28.46777;953.3995;;;;
2019/04/02 10:31:34;;;;;;;22.4;19.7;;;;;;;26.35;27.68848;953.3689;;;;
2019/04/02 10:33:59;;;;;;;26.2;20.4;;;;;;;25.78;28.68652;953.3862;;;;
2019/04/02 10:36:24;;;;;;;18.7;16.7;;;;;;;26.56;27.59375;953.3085;;;;
2019/04/02 10:38:49;;;;;;;22.1;18.4;;;;;;;26.93;26.99023;953.2729;;;;
2019/04/02 10:41:19;;;;;;;26.4;23.5;;;;;;;26.38;27.12598;953.2102;;;;
2019/04/02 10:43:40;;;;;;;22.2;19.8;;;;;;;27.07;25.85449;953.2074;;;;
2019/04/02 10:46:05;;;;;;;30.7;24.4;;;;;;;25.96;27.06348;953.1809;;;;
2019/04/02 10:48:30;;;;;;;33.4;26.5;;;;;;;25.19;27.89258;953.0555;;;;
2019/04/02 10:50:59;;;;;;;25.3;22.2;;;;;;;25.66;28.08984;953.0411;;;;
2019/04/02 10:53:27;;;;;;;22.3;19.4;;;;;;;25.94;27.62695;953.062;;;;
2019/04/02 10:55:53;;;;;;;23;20.5;;;;;;;27.31;26.15723;953.0368;;;;
2019/04/02 10:58:18;;;;;;;22.6;19.1;;;;;;;27.81;24.96875;952.9749;;;;
2019/04/02 11:00:43;;;;;;;16.7;14.9;;;;;;;28.57;24.11621;952.9458;;;;
2019/04/02 11:03:08;;;;;;;27.9;22.9;;;;;;;26.73;26.20801;952.8664;;;;
2019/04/02 11:05:34;;;;;;;20.3;16.6;;;;;;;27.24;25.81543;952.7964;;;;
2019/04/02 11:08:02;;;;;;;24.3;20.2;;;;;;;28.03;25.04102;952.6961;;;;
2019/04/02 11:10:38;;;;;;;18.2;15.7;;;;;;;28.09;25.38184;952.7595;;;;
2019/04/02 11:13:07;;;;;;;30.1;23.9;;;;;;;28.35;25.01074;952.803;;;;
2019/04/02 11:15:36;;;;;;;23.9;20;;;;;;;28.12;24.78027;952.7316;;;;
2019/04/02 11:17:57;;;;;;;21.8;18.8;;;;;;;28.15;24.2998;952.7128;;;;
2019/04/02 11:20:23;;;;;;;19.7;17.2;;;;;;;27.81;24.42578;952.6505;;;;
2019/04/02 11:22:50;;;;;;;25.1;22;;;;;;;26.5;25.4248;952.63;;;;
2019/04/02 11:25:15;;;;;;;29.6;24.3;;;;;;;25.54;26.67871;952.6005;;;;
2019/04/02 11:27:40;;;;;;;21.1;17.1;;;;;;;26.69;25.61621;952.5547;;;;
2019/04/02 11:30:05;;;;;;;24.9;20;;;;;;;27.22;25.0918;952.5417;;;;
2019/04/02 11:32:30;;;;;;;19.2;16.8;;;;;;;28.14;23.83984;952.4881;;;;
2019/04/02 11:35:05;;;;;;;22.9;19.8;;;;;;;29.02;22.60449;952.4776;;;;
2019/04/02 11:37:36;;;;;;;17.8;15.5;;;;;;;28.62;22.82617;952.402;;;;
2019/04/02 11:40:02;;;;;;;19.9;17.2;;;;;;;29.39;22.5498;952.2798;;;;
2019/04/02 11:42:26;;;;;;;19.3;16.9;;;;;;;29.42;22.20117;952.353;;;;
2019/04/02 11:44:52;;;;;;;22.7;19.4;;;;;;;29.39;21.65527;952.1824;;;;
2019/04/02 11:47:19;;;;;;;14.3;12.8;;;;;;;29.14;22.01758;952.2134;;;;
2019/04/02 11:49:45;;;;;;;20.9;18;;;;;;;29.12;22.62109;952.1955;;;;
2019/04/02 11:52:13;;;;;;;19.3;16.3;;;;;;;28.95;21.08984;952.1222;;;;
2019/04/02 11:54:38;;;;;;;18.7;14.4;;;;;;;28.44;20.15918;952.0455;;;;
2019/04/02 11:57:04;;;;;;;15.4;12.6;;;;;;;27.3;20;951.9963;;;;
2019/04/02 11:59:33;;;;;;;16.7;13.5;;;;;;;27.28;20.38477;951.9086;;;;
2019/04/02 12:01:56;;;;;;;16.2;13.4;;;;;;;27.68;20.92188;951.9178;;;;
2019/04/02 12:04:21;;;;;;;17;14.5;;;;;;;28.18;22.13965;951.9068;;;;
2019/04/02 12:06:46;;;;;;;17.9;15.5;;;;;;;27.83;22.42383;951.9158;;;;
2019/04/02 12:09:16;;;;;;;17.5;14.6;;;;;;;28.33;22.28027;951.7819;;;;
2019/04/02 12:11:43;;;;;;;15.5;13.1;;;;;;;29.21;21.81543;951.7344;;;;
2019/04/02 12:14:11;;;;;;;17.4;14.5;;;;;;;28.45;21.7666;951.7497;;;;
2019/04/02 12:16:39;;;;;;;14.5;10.6;;;;;;;29.11;19.3916;951.7849;;;;
2019/04/02 12:19:04;;;;;;;10.6;9.5;;;;;;;28.37;18.64648;951.7167;;;;
2019/04/02 12:21:33;;;;;;;12.2;10.6;;;;;;;28.02;18.4873;951.6384;;;;
2019/04/02 12:23:58;;;;;;;14.1;12.4;;;;;;;26.9;19.58496;951.6113;;;;
2019/04/02 12:26:23;;;;;;;11.9;10.7;;;;;;;27.29;18.44531;951.5697;;;;
2019/04/02 12:28:52;;;;;;;15.3;11.2;;;;;;;26.35;19.34473;951.4857;;;;
2019/04/02 12:31:20;;;;;;;14.7;12.8;;;;;;;24.78;20.72656;951.4875;;;;
2019/04/02 12:33:45;;;;;;;15.8;12.5;;;;;;;25.22;20.4834;951.4673;;;;
2019/04/02 12:36:10;;;;;;;12.4;10.5;;;;;;;26.39;20.12793;951.408;;;;
2019/04/02 12:38:35;;;;;;;16;12.7;;;;;;;26.05;19.95703;951.3781;;;;
2019/04/02 12:41:00;;;;;;;14.6;12.7;;;;;;;26.41;19.64746;951.295;;;;
2019/04/02 12:43:34;;;;;;;12.4;11.1;;;;;;;26.69;20.2373;951.3747;;;;
2019/04/02 12:45:58;;;;;;;11.4;9.2;;;;;;;26.68;20.12891;951.3234;;;;
2019/04/02 12:48:24;;;;;;;11;9.8;;;;;;;26.84;19.96777;951.2121;;;;
2019/04/02 12:50:49;;;;;;;12.8;10.6;;;;;;;26.95;19.76758;951.187;;;;
2019/04/02 12:53:14;;;;;;;14.1;12.6;;;;;;;26.39;19.9834;951.2559;;;;
2019/04/02 12:55:39;;;;;;;13.2;10.6;;;;;;;26.63;19.89844;951.2063;;;;
2019/04/02 12:58:04;;;;;;;17.9;12.6;;;;;;;25.41;21.16406;951.1144;;;;
2019/04/02 13:00:29;;;;;;;13.3;11.6;;;;;;;24.88;21.12695;951.1172;;;;
2019/04/02 13:02:56;;;;;;;16.6;14.9;;;;;;;25.17;21.47656;951.0698;;;;
2019/04/02 13:05:25;;;;;;;14.3;11.3;;;;;;;25.67;20.92383;951.0759;;;;
2019/04/02 13:07:50;;;;;;;12.4;11;;;;;;;25.52;20.71289;950.9594;;;;
2019/04/02 13:10:15;;;;;;;15.9;13.3;;;;;;;24.46;21.3584;950.9562;;;;
2019/04/02 13:12:45;;;;;;;13;11.4;;;;;;;24.31;22.04492;950.9347;;;;
2019/04/02 13:15:09;;;;;;;17;12.7;;;;;;;23.63;22.17871;950.9689;;;;
2019/04/02 13:17:33;;;;;;;13.6;12;;;;;;;23.27;22.59082;950.8926;;;;
2019/04/02 13:19:58;;;;;;;12.9;10.8;;;;;;;23.02;23.30664;950.8125;;;;
2019/04/02 13:22:28;;;;;;;16.2;11.7;;;;;;;22.74;23.18359;950.8522;;;;
2019/04/02 13:24:55;;;;;;;12.5;10.4;;;;;;;22.63;23.10645;950.7787;;;;
2019/04/02 13:27:20;;;;;;;16.8;12.2;;;;;;;22.18;24.02441;950.7503;;;;
2019/04/02 13:29:45;;;;;;;14;10.7;;;;;;;22.22;24.57422;950.6307;;;;
2019/04/02 13:32:10;;;;;;;16;11.9;;;;;;;21.93;24.28418;950.6447;;;;
2019/04/02 13:34:39;;;;;;;16.4;13;;;;;;;21.51;24.74902;950.683;;;;
2019/04/02 13:37:04;;;;;;;14.9;12;;;;;;;21.72;24.21387;950.6351;;;;
2019/04/02 13:39:33;;;;;;;13.4;11.1;;;;;;;21.18;23.81641;950.5295;;;;
2019/04/02 13:42:12;;;;;;;11.5;9.4;;;;;;;21.51;23.69043;950.5139;;;;
2019/04/02 13:44:34;;;;;;;14.2;10.6;;;;;;;21.36;23.9209;950.5128;;;;
2019/04/02 13:46:59;;;;;;;14.7;10.8;;;;;;;21.2;23.9834;950.5517;;;;
2019/04/02 13:49:25;;;;;;;14.5;10.3;;;;;;;21.18;23.62598;950.5334;;;;
2019/04/02 13:52:41;;;;;;;12.2;9.6;;;;;;;21.12;23.48047;950.4341;;;;
2019/04/02 13:55:25;;;;;;;10.6;8.2;;;;;;;21.28;23.34668;950.3822;;;;
2019/04/02 13:57:56;;;;;;;9.9;8;;;;;;;21.48;23.45117;950.3761;;;;
2019/04/02 14:00:14;;;;;;;13.2;8.8;;;;;;;21.34;23.27734;950.3684;;;;
2019/04/02 14:12:53;;;;;;;10.4;7.8;;;;;;;21.71;22.82129;950.2462;;;;
2019/04/02 14:15:19;;;;;;;11.1;9.2;;;;;;;21.6;22.93457;950.2468;;;;
2019/04/02 14:17:51;;;;;;;11.1;8.8;;;;;;;21.66;22.65234;950.1197;;;;
2019/04/02 14:20:13;;;;;;;9.2;7.5;;;;;;;21.95;22.46484;950.1114;;;;
2019/04/02 14:22:38;;;;;;;10.5;8.4;;;;;;;21.57;22.43359;950.0361;;;;
2019/04/02 14:25:17;;;;;;;12;8.7;;;;;;;21.68;22.53418;950.0303;;;;
2019/04/02 14:28:25;;;;;;;8.7;6.8;;;;;;;21.8;22.73047;949.9984;;;;
2019/04/02 14:38:00;;;;;;;10.8;8.4;;;;;;;21.43;23.40137;949.9285;;;;
2019/04/02 14:40:55;;;;;;;12.9;9.1;;;;;;;21.44;23.0459;949.9791;;;;